createdAt,value
2018-08-10T00:03:09.008Z,18.70
2018-08-10T00:07:11.299Z,19.00
2018-08-10T00:11:13.475Z,18.90
2018-08-10T00:15:15.676Z,19.10
2018-08-10T00:19:17.924Z,19.00
2018-08-10T00:23:20.082Z,18.70
2018-08-10T00:27:22.305Z,18.80
2018-08-10T00:31:24.561Z,18.30
2018-08-10T00:35:26.818Z,17.80
2018-08-10T00:39:28.963Z,18.40
2018-08-10T00:43:31.186Z,18.40
2018-08-10T00:47:33.417Z,18.20
2018-08-10T00:51:35.702Z,18.20
2018-08-10T00:55:37.964Z,18.00
2018-08-10T00:59:40.155Z,18.40
2018-08-10T01:03:42.322Z,18.80
2018-08-10T01:07:44.525Z,18.40
2018-08-10T01:11:46.729Z,17.50
2018-08-10T01:15:48.931Z,18.00
2018-08-10T01:19:51.099Z,17.40
2018-08-10T01:23:53.315Z,17.30
2018-08-10T01:28:00.893Z,17.40
2018-08-10T01:32:03.112Z,17.60
2018-08-10T01:36:05.479Z,18.20
2018-08-10T01:40:08.296Z,17.70
2018-08-10T01:44:10.532Z,17.40
2018-08-10T01:48:12.689Z,17.70
2018-08-10T01:52:15.034Z,17.60
2018-08-10T01:56:17.251Z,17.30
2018-08-10T02:00:19.544Z,17.80
2018-08-10T02:04:21.720Z,18.30
2018-08-10T02:08:23.908Z,18.20
2018-08-10T02:12:26.103Z,17.80
2018-08-10T02:16:28.242Z,17.60
2018-08-10T02:20:30.514Z,17.60
2018-08-10T02:24:32.850Z,16.90
2018-08-10T02:28:34.973Z,17.20
2018-08-10T02:32:37.724Z,16.60
2018-08-10T02:36:39.911Z,17.00
2018-08-10T02:40:42.056Z,16.80
2018-08-10T02:44:44.203Z,16.40
2018-08-10T02:48:46.388Z,16.70
2018-08-10T02:52:48.663Z,16.10
2018-08-10T02:56:50.899Z,16.70
2018-08-10T03:00:53.083Z,16.80
2018-08-10T03:04:55.310Z,16.40
2018-08-10T03:08:57.803Z,16.90
2018-08-10T03:13:00.003Z,17.40
2018-08-10T03:17:02.173Z,17.50
2018-08-10T03:21:04.422Z,17.10
2018-08-10T03:25:07.667Z,17.00
2018-08-10T03:29:09.831Z,17.70
2018-08-10T03:33:12.059Z,16.90
2018-08-10T03:37:14.252Z,17.40
2018-08-10T03:41:16.423Z,17.50
2018-08-10T03:45:18.648Z,17.80
2018-08-10T03:49:20.882Z,17.60
2018-08-10T03:53:23.075Z,17.30
2018-08-10T03:57:25.249Z,17.50
2018-08-10T04:01:27.475Z,17.60
2018-08-10T04:05:29.677Z,17.60
2018-08-10T04:09:31.859Z,18.50
2018-08-10T04:13:34.090Z,19.00
2018-08-10T04:17:36.285Z,19.30
2018-08-10T04:21:38.520Z,19.30
2018-08-10T04:25:40.668Z,18.70
2018-08-10T04:29:42.887Z,19.10
2018-08-10T04:33:45.015Z,18.70
2018-08-10T04:37:47.218Z,18.80
2018-08-10T04:41:49.550Z,18.00
2018-08-10T04:45:51.699Z,19.00
2018-08-10T04:49:53.877Z,19.00
2018-08-10T04:53:56.051Z,19.40
2018-08-10T04:57:58.236Z,18.40
2018-08-10T05:02:00.443Z,18.90
2018-08-10T05:06:02.641Z,19.40
2018-08-10T05:10:04.909Z,19.50
2018-08-10T05:14:07.260Z,19.20
2018-08-10T05:18:09.462Z,19.20
2018-08-10T05:22:11.646Z,19.80
2018-08-10T05:26:13.803Z,20.20
2018-08-10T05:30:16.092Z,20.00
2018-08-10T05:34:18.266Z,20.20
2018-08-10T05:38:20.515Z,20.20
2018-08-10T05:42:22.687Z,19.60
2018-08-10T05:46:25.168Z,19.00
2018-08-10T05:50:27.292Z,18.80
2018-08-10T05:54:29.522Z,19.50
2018-08-10T05:58:31.715Z,19.50
2018-08-10T06:02:33.954Z,20.50
2018-08-10T06:06:36.199Z,19.30
2018-08-10T06:10:38.399Z,19.20
2018-08-10T06:14:40.633Z,19.60
2018-08-10T06:18:42.851Z,19.30
2018-08-10T06:22:45.051Z,20.50
2018-08-10T06:26:47.259Z,20.00
2018-08-10T06:30:49.460Z,20.60
2018-08-10T06:34:51.647Z,20.00
2018-08-10T06:38:54.601Z,20.30
2018-08-10T06:42:56.831Z,20.70
2018-08-10T06:46:59.026Z,20.90
2018-08-10T06:51:01.380Z,21.70
2018-08-10T06:55:03.595Z,21.40
2018-08-10T06:59:05.930Z,22.50
2018-08-10T07:03:08.145Z,22.10
2018-08-10T07:07:11.474Z,21.20
2018-08-10T07:11:13.714Z,22.10
2018-08-10T07:15:16.040Z,22.00
2018-08-10T07:19:18.231Z,22.80
2018-08-10T07:23:20.475Z,23.00
2018-08-10T07:27:23.216Z,23.00
2018-08-10T07:31:25.392Z,22.20
2018-08-10T07:35:27.633Z,22.20
2018-08-10T07:39:29.845Z,23.20
2018-08-10T07:43:32.033Z,22.60
2018-08-10T07:47:43.811Z,22.80
2018-08-10T07:51:46.016Z,23.00
2018-08-10T07:55:48.190Z,22.70
2018-08-10T07:59:50.414Z,23.20
2018-08-10T08:03:52.893Z,23.10
2018-08-10T08:07:55.160Z,23.90
2018-08-10T08:11:57.403Z,24.30
2018-08-10T08:15:59.598Z,24.20
2018-08-10T08:20:01.806Z,24.70
2018-08-10T08:24:04.135Z,24.60
2018-08-10T08:28:06.639Z,23.90
2018-08-10T08:32:09.042Z,24.60
2018-08-10T08:36:11.651Z,24.80
2018-08-10T08:40:17.642Z,23.30
2018-08-10T08:44:32.635Z,24.80
2018-08-10T08:48:36.445Z,25.00
2018-08-10T08:52:38.665Z,25.40
2018-08-10T08:56:42.136Z,24.90
2018-08-10T09:00:44.373Z,24.60
2018-08-10T09:05:00.159Z,23.10
2018-08-10T09:09:13.707Z,22.30
2018-08-10T09:13:15.918Z,22.20
2018-08-10T09:17:18.279Z,23.60
2018-08-10T09:21:20.428Z,24.20
2018-08-10T09:25:22.706Z,24.80
2018-08-10T09:29:25.056Z,24.70
2018-08-10T09:33:27.286Z,24.20
2018-08-10T09:37:29.935Z,24.40
2018-08-10T09:41:32.236Z,24.70
2018-08-10T09:45:34.410Z,25.50
2018-08-10T09:49:45.629Z,25.10
2018-08-10T09:53:47.920Z,25.10
2018-08-10T09:57:52.441Z,25.10
2018-08-10T10:02:00.444Z,24.20
2018-08-10T10:06:02.662Z,24.70
2018-08-10T10:10:04.906Z,23.50
2018-08-10T10:14:07.844Z,24.60
2018-08-10T10:18:11.548Z,24.60
2018-08-10T10:22:14.263Z,24.60
2018-08-10T10:26:16.613Z,25.10
2018-08-10T10:30:18.819Z,24.20
2018-08-10T10:34:21.086Z,24.90
2018-08-10T10:38:23.278Z,25.90
2018-08-10T10:42:26.020Z,27.40
2018-08-10T10:46:29.077Z,28.40
2018-08-10T10:50:31.280Z,27.70
2018-08-10T10:54:33.498Z,27.00
2018-08-10T10:58:35.753Z,26.70
2018-08-10T11:02:37.953Z,24.60
2018-08-10T11:06:40.178Z,24.20
2018-08-10T11:10:42.420Z,25.10
2018-08-10T11:14:44.655Z,24.30
2018-08-10T11:18:46.863Z,24.80
2018-08-10T11:22:49.547Z,24.40
2018-08-10T11:26:51.832Z,23.90
2018-08-10T11:30:54.043Z,24.70
2018-08-10T11:34:56.281Z,24.30
2018-08-10T11:38:58.548Z,24.40
2018-08-10T11:43:00.809Z,24.00
2018-08-10T11:47:03.005Z,24.40
2018-08-10T11:51:05.258Z,24.40
2018-08-10T11:55:09.653Z,25.00
2018-08-10T11:59:12.302Z,26.30
2018-08-10T12:03:14.635Z,26.20
2018-08-10T12:07:16.860Z,26.20
2018-08-10T12:11:19.041Z,26.30
2018-08-10T12:15:21.298Z,26.10
2018-08-10T12:19:23.447Z,26.50
2018-08-10T12:23:25.653Z,27.20
2018-08-10T12:27:27.897Z,27.10
2018-08-10T12:31:30.644Z,25.90
2018-08-10T12:35:33.576Z,25.30
2018-08-10T12:39:35.991Z,23.10
2018-08-10T12:43:38.708Z,22.80
2018-08-10T12:47:42.017Z,22.90
2018-08-10T12:51:45.143Z,23.40
2018-08-10T12:55:47.534Z,24.70
2018-08-10T12:59:49.869Z,26.20
2018-08-10T13:03:52.450Z,28.00
2018-08-10T13:07:55.950Z,29.40
2018-08-10T13:11:58.214Z,29.10
2018-08-10T13:16:00.505Z,27.90
2018-08-10T13:20:03.001Z,27.50
2018-08-10T13:24:06.982Z,26.50
2018-08-10T13:28:09.321Z,26.20
2018-08-10T13:32:11.619Z,25.00
2018-08-10T13:36:13.830Z,25.80
2018-08-10T13:40:16.119Z,25.90
2018-08-10T13:44:18.334Z,27.10
2018-08-10T13:48:20.542Z,26.30
2018-08-10T13:52:22.971Z,26.20
2018-08-10T13:56:25.291Z,26.80
2018-08-10T14:00:27.509Z,26.20
2018-08-10T14:04:29.765Z,25.30
2018-08-10T14:08:32.044Z,26.00
2018-08-10T14:12:34.225Z,26.90
2018-08-10T14:16:36.444Z,26.50
2018-08-10T14:20:38.695Z,25.70
2018-08-10T14:24:40.850Z,26.10
2018-08-10T14:28:43.082Z,25.90
2018-08-10T14:32:45.264Z,25.30
2018-08-10T14:36:47.548Z,25.50
2018-08-10T14:40:49.783Z,26.10
2018-08-10T14:44:52.012Z,25.70
2018-08-10T14:48:54.292Z,26.10
2018-08-10T14:52:56.544Z,26.10
2018-08-10T14:56:58.838Z,27.60
2018-08-10T15:01:01.141Z,29.00
2018-08-10T15:05:03.809Z,29.90
2018-08-10T15:09:08.896Z,30.90
2018-08-10T15:13:11.184Z,29.10
2018-08-10T15:17:13.454Z,29.50
2018-08-10T15:21:15.729Z,29.60
2018-08-10T15:25:17.980Z,28.00
2018-08-10T15:29:20.186Z,27.90
2018-08-10T15:33:22.419Z,28.50
2018-08-10T15:37:25.161Z,26.40
2018-08-10T15:41:27.412Z,26.80
2018-08-10T15:45:29.659Z,26.90
2018-08-10T15:49:31.866Z,27.50
2018-08-10T15:53:34.048Z,27.50
2018-08-10T15:57:36.978Z,27.30
2018-08-10T16:01:39.163Z,27.30
2018-08-10T16:05:41.528Z,26.80
2018-08-10T16:09:43.808Z,26.70
2018-08-10T16:13:46.099Z,26.80
2018-08-10T16:17:48.295Z,26.70
2018-08-10T16:21:50.455Z,26.70
2018-08-10T16:25:52.681Z,27.10
2018-08-10T16:29:54.908Z,27.70
2018-08-10T16:33:57.142Z,27.70
2018-08-10T16:37:59.378Z,28.00
2018-08-10T16:42:01.635Z,27.40
2018-08-10T16:46:03.972Z,28.50
2018-08-10T16:50:11.346Z,27.50
2018-08-10T16:54:13.575Z,25.20
2018-08-10T16:58:15.839Z,25.00
2018-08-10T17:02:18.059Z,24.80
2018-08-10T17:06:20.370Z,25.90
2018-08-10T17:10:22.660Z,26.20
2018-08-10T17:14:25.000Z,25.30
2018-08-10T17:18:27.194Z,24.60
2018-08-10T17:22:32.495Z,25.20
2018-08-10T17:26:35.095Z,24.70
2018-08-10T17:30:37.592Z,24.30
2018-08-10T17:34:41.336Z,24.10
2018-08-10T17:38:43.599Z,24.00
2018-08-10T17:42:46.185Z,24.20
2018-08-10T17:46:49.440Z,24.70
2018-08-10T17:50:52.059Z,24.80
2018-08-10T17:54:55.149Z,25.50
2018-08-10T17:58:57.814Z,26.10
2018-08-10T18:03:00.732Z,25.80
2018-08-10T18:07:04.119Z,26.10
2018-08-10T18:11:07.419Z,25.80
2018-08-10T18:15:16.072Z,26.00
2018-08-10T18:19:18.284Z,26.20
2018-08-10T18:23:21.193Z,25.80
2018-08-10T18:27:23.652Z,25.20
2018-08-10T18:31:26.076Z,25.70
2018-08-10T18:35:30.092Z,26.00
2018-08-10T18:39:32.377Z,26.10
2018-08-10T18:43:35.958Z,26.30
2018-08-10T18:47:39.530Z,26.10
2018-08-10T18:51:42.387Z,25.90
2018-08-10T18:55:44.650Z,25.60
2018-08-10T18:59:47.377Z,25.20
2018-08-10T19:03:49.698Z,25.00
2018-08-10T19:07:51.928Z,24.70
2018-08-10T19:11:54.451Z,24.40
2018-08-10T19:15:56.765Z,24.60
2018-08-10T19:19:59.016Z,24.80
2018-08-10T19:24:01.333Z,24.70
2018-08-10T19:28:03.620Z,24.60
2018-08-10T19:32:05.912Z,24.00
2018-08-10T19:36:08.188Z,23.60
2018-08-10T19:40:12.310Z,23.40
2018-08-10T19:44:14.514Z,23.20
2018-08-10T19:48:16.856Z,23.10
2018-08-10T19:52:19.166Z,23.00
2018-08-10T19:56:21.793Z,22.60
2018-08-10T20:00:24.013Z,22.40
2018-08-10T20:04:26.232Z,22.70
2018-08-10T20:08:28.498Z,22.80
2018-08-10T20:12:31.317Z,22.80
2018-08-10T20:16:33.567Z,22.50
2018-08-10T20:20:35.855Z,22.40
2018-08-10T20:24:38.131Z,22.60
2018-08-10T20:28:40.333Z,22.70
2018-08-10T20:32:42.848Z,22.60
2018-08-10T20:36:45.112Z,22.60
2018-08-10T20:40:47.475Z,22.40
2018-08-10T20:44:49.699Z,22.30
2018-08-10T20:48:51.966Z,22.40
2018-08-10T20:52:54.178Z,22.40
2018-08-10T20:56:56.406Z,22.20
2018-08-10T21:00:58.663Z,22.30
2018-08-10T21:05:00.883Z,22.30
2018-08-10T21:09:06.016Z,22.30
2018-08-10T21:13:08.222Z,22.10
2018-08-10T21:17:10.511Z,22.00
2018-08-10T21:21:12.711Z,22.10
2018-08-10T21:25:14.996Z,21.80
2018-08-10T21:29:17.446Z,21.80
2018-08-10T21:33:19.723Z,21.70
2018-08-10T21:37:21.934Z,21.70
2018-08-10T21:41:24.282Z,21.60
2018-08-10T21:45:27.027Z,21.60
2018-08-10T21:49:29.432Z,21.50
2018-08-10T21:53:32.139Z,21.30
2018-08-10T21:57:34.414Z,21.40
2018-08-10T22:01:36.680Z,21.40
2018-08-10T22:05:39.451Z,21.40
2018-08-10T22:09:41.652Z,21.30
2018-08-10T22:13:49.652Z,21.20
2018-08-10T22:17:57.542Z,21.10
2018-08-10T22:21:59.785Z,20.50
2018-08-10T22:26:02.055Z,19.20
2018-08-10T22:30:05.280Z,19.60
2018-08-10T22:34:07.817Z,20.00
2018-08-10T22:38:10.677Z,20.40
2018-08-10T22:42:13.000Z,20.90
2018-08-10T22:46:15.222Z,21.00
2018-08-10T22:50:17.479Z,20.80
2018-08-10T22:54:19.683Z,20.60
2018-08-10T22:58:21.882Z,20.50
2018-08-10T23:02:24.103Z,20.40
2018-08-10T23:06:26.270Z,20.10
2018-08-10T23:10:28.474Z,20.30
2018-08-10T23:14:30.685Z,20.10
2018-08-10T23:18:33.320Z,20.10
2018-08-10T23:22:35.599Z,20.20
2018-08-10T23:26:37.834Z,20.10
2018-08-10T23:30:40.116Z,20.10
2018-08-10T23:34:42.299Z,19.20
2018-08-10T23:38:44.576Z,18.80
2018-08-10T23:42:46.766Z,19.70
2018-08-10T23:46:49.220Z,20.00
2018-08-10T23:50:51.476Z,20.30
2018-08-10T23:54:53.702Z,19.80
2018-08-10T23:58:56.011Z,19.70
